
<gpx xmlns="http://www.topografix.com/GPX/1/1" xmlns:gpxx="http://www.garmin.com/xmlschemas/GpxExtensions/v3" xmlns:xsi="http://www.w3.org/2001/XMLSchema-instance" version="1.1" creator="Adze - http://kobotsw.com/apps/adze" xsi:schemaLocation="http://www.topografix.com/GPX/1/1 http://www.topografix.com/GPX/1/1/gpx.xsd http://www.garmin.com/xmlschemas/GpxExtensions/v3 http://www.garmin.com/xmlschemas/GpxExtensionsv3.xsd">
    <metadata>
        <name>Untitled Document</name>
        <link href="http://www.garmin.com"></link>
        <time>2018-02-26T06:44:55.375Z</time>
    </metadata>
    <wpt lon="101.191904" lat="14.707602">
        <ele>185.000000</ele>
        <name>Arunvit Resort</name>
        <cmt>26-APR-14 12:51:21</cmt>
        <desc>26-APR-14 12:51:21</desc>
        <sym>Lodging</sym>
        <extensions>
            <gpxx:WaypointExtension xmlns:gpxx="http://www.garmin.com/xmlschemas/GpxExtensions/v3">
                <gpxx:DisplayMode>SymbolOnly</gpxx:DisplayMode>
            </gpxx:WaypointExtension>
        </extensions>
    </wpt>
    <wpt lon="101.235528" lat="14.724342">
        <ele>203.000000</ele>
        <name>WaterSun</name>
        <cmt>27-APR-14 10:58:56</cmt>
        <desc>27-APR-14 10:58:56</desc>
        <sym>Drinking Water</sym>
        <extensions>
            <gpxx:WaypointExtension xmlns:gpxx="http://www.garmin.com/xmlschemas/GpxExtensions/v3">
                <gpxx:DisplayMode>SymbolOnly</gpxx:DisplayMode>
            </gpxx:WaypointExtension>
        </extensions>
    </wpt>
    <trk>
        <name>Sunday</name>
        <extensions>
            <gpxx:TrackExtension xmlns:gpxx="http://www.garmin.com/xmlschemas/GpxExtensions/v3">
                <gpxx:DisplayColor>Green</gpxx:DisplayColor>
            </gpxx:TrackExtension>
        </extensions>
        <trkseg>
            <trkpt lon="101.191863" lat="14.707806">
                <ele>182.787842</ele>
                <time>2014-04-27T02:58:25Z</time>
            </trkpt>
            <trkpt lon="101.191857" lat="14.708375">
                <ele>180.865234</ele>
                <time>2014-04-27T02:58:46Z</time>
            </trkpt>
            <trkpt lon="101.191813" lat="14.708931">
                <ele>179.903809</ele>
                <time>2014-04-27T02:59:04Z</time>
            </trkpt>
            <trkpt lon="101.191447" lat="14.709332">
                <ele>179.903809</ele>
                <time>2014-04-27T02:59:23Z</time>
            </trkpt>
            <trkpt lon="101.190916" lat="14.709645">
                <ele>182.787842</ele>
                <time>2014-04-27T02:59:41Z</time>
            </trkpt>
            <trkpt lon="101.190805" lat="14.709981">
                <ele>186.152466</ele>
                <time>2014-04-27T02:59:56Z</time>
            </trkpt>
            <trkpt lon="101.190956" lat="14.710313">
                <ele>185.671753</ele>
                <time>2014-04-27T03:00:09Z</time>
            </trkpt>
            <trkpt lon="101.191341" lat="14.710984">
                <ele>185.671753</ele>
                <time>2014-04-27T03:00:31Z</time>
            </trkpt>
            <trkpt lon="101.191485" lat="14.711685">
                <ele>187.113769</ele>
                <time>2014-04-27T03:00:52Z</time>
            </trkpt>
            <trkpt lon="101.191498" lat="14.712302">
                <ele>185.671753</ele>
                <time>2014-04-27T03:01:12Z</time>
            </trkpt>
            <trkpt lon="101.191542" lat="14.712813">
                <ele>185.671753</ele>
                <time>2014-04-27T03:01:34Z</time>
            </trkpt>
            <trkpt lon="101.191631" lat="14.713380">
                <ele>186.152466</ele>
                <time>2014-04-27T03:01:54Z</time>
            </trkpt>
            <trkpt lon="101.191795" lat="14.713857">
                <ele>186.633179</ele>
                <time>2014-04-27T03:02:11Z</time>
            </trkpt>
            <trkpt lon="101.192103" lat="14.714624">
                <ele>188.075073</ele>
                <time>2014-04-27T03:02:36Z</time>
            </trkpt>
            <trkpt lon="101.192319" lat="14.715279">
                <ele>188.555786</ele>
                <time>2014-04-27T03:02:58Z</time>
            </trkpt>
            <trkpt lon="101.192455" lat="14.715845">
                <ele>189.036377</ele>
                <time>2014-04-27T03:03:16Z</time>
            </trkpt>
            <trkpt lon="101.192030" lat="14.716061">
                <ele>189.516968</ele>
                <time>2014-04-27T03:03:28Z</time>
            </trkpt>
            <trkpt lon="101.190946" lat="14.716489">
                <ele>187.594360</ele>
                <time>2014-04-27T03:03:51Z</time>
            </trkpt>
            <trkpt lon="101.190853" lat="14.716546">
                <ele>187.594360</ele>
                <time>2014-04-27T03:03:53Z</time>
            </trkpt>
            <trkpt lon="101.190738" lat="14.716693">
                <ele>188.075073</ele>
                <time>2014-04-27T03:03:57Z</time>
            </trkpt>
            <trkpt lon="101.190723" lat="14.717304">
                <ele>188.075073</ele>
                <time>2014-04-27T03:04:14Z</time>
            </trkpt>
            <trkpt lon="101.190568" lat="14.717626">
                <ele>188.075073</ele>
                <time>2014-04-27T03:04:21Z</time>
            </trkpt>
            <trkpt lon="101.190419" lat="14.717930">
                <ele>188.555786</ele>
                <time>2014-04-27T03:04:27Z</time>
            </trkpt>
            <trkpt lon="101.190236" lat="14.718579">
                <ele>185.671753</ele>
                <time>2014-04-27T03:04:44Z</time>
            </trkpt>
            <trkpt lon="101.190217" lat="14.718642">
                <ele>185.671753</ele>
                <time>2014-04-27T03:04:46Z</time>
            </trkpt>
            <trkpt lon="101.189829" lat="14.719228">
                <ele>180.384522</ele>
                <time>2014-04-27T03:04:59Z</time>
            </trkpt>
            <trkpt lon="101.189301" lat="14.719706">
                <ele>178.942627</ele>
                <time>2014-04-27T03:05:16Z</time>
            </trkpt>
            <trkpt lon="101.188801" lat="14.720152">
                <ele>180.384522</ele>
                <time>2014-04-27T03:05:37Z</time>
            </trkpt>
            <trkpt lon="101.188404" lat="14.720604">
                <ele>178.461914</ele>
                <time>2014-04-27T03:05:52Z</time>
            </trkpt>
            <trkpt lon="101.188430" lat="14.721230">
                <ele>177.500610</ele>
                <time>2014-04-27T03:06:08Z</time>
            </trkpt>
            <trkpt lon="101.188606" lat="14.722238">
                <ele>178.942627</ele>
                <time>2014-04-27T03:06:32Z</time>
            </trkpt>
            <trkpt lon="101.188998" lat="14.723263">
                <ele>177.981201</ele>
                <time>2014-04-27T03:07:04Z</time>
            </trkpt>
            <trkpt lon="101.189096" lat="14.723260">
                <ele>177.500610</ele>
                <time>2014-04-27T03:07:18Z</time>
            </trkpt>
            <trkpt lon="101.189169" lat="14.723259">
                <ele>177.500610</ele>
                <time>2014-04-27T03:07:32Z</time>
            </trkpt>
            <trkpt lon="101.189345" lat="14.723323">
                <ele>178.461914</ele>
                <time>2014-04-27T03:07:51Z</time>
            </trkpt>
            <trkpt lon="101.189841" lat="14.723413">
                <ele>178.942627</ele>
                <time>2014-04-27T03:08:08Z</time>
            </trkpt>
            <trkpt lon="101.190134" lat="14.723420">
                <ele>175.577881</ele>
                <time>2014-04-27T03:08:25Z</time>
            </trkpt>
            <trkpt lon="101.190227" lat="14.723436">
                <ele>176.539307</ele>
                <time>2014-04-27T03:08:44Z</time>
            </trkpt>
            <trkpt lon="101.190348" lat="14.723416">
                <ele>176.058594</ele>
                <time>2014-04-27T03:08:58Z</time>
            </trkpt>
            <trkpt lon="101.190409" lat="14.723411">
                <ele>177.500610</ele>
                <time>2014-04-27T03:09:17Z</time>
            </trkpt>
            <trkpt lon="101.190507" lat="14.723384">
                <ele>177.020019</ele>
                <time>2014-04-27T03:09:36Z</time>
            </trkpt>
            <trkpt lon="101.190764" lat="14.723382">
                <ele>174.616577</ele>
                <time>2014-04-27T03:09:51Z</time>
            </trkpt>
            <trkpt lon="101.190807" lat="14.723396">
                <ele>172.693970</ele>
                <time>2014-04-27T03:10:00Z</time>
            </trkpt>
            <trkpt lon="101.191336" lat="14.723601">
                <ele>175.097290</ele>
                <time>2014-04-27T03:10:33Z</time>
            </trkpt>
            <trkpt lon="101.191620" lat="14.724257">
                <ele>171.732666</ele>
                <time>2014-04-27T03:11:05Z</time>
            </trkpt>
            <trkpt lon="101.191597" lat="14.724436">
                <ele>167.887329</ele>
                <time>2014-04-27T03:11:24Z</time>
            </trkpt>
            <trkpt lon="101.191417" lat="14.725470">
                <ele>165.964722</ele>
                <time>2014-04-27T03:12:01Z</time>
            </trkpt>
            <trkpt lon="101.191542" lat="14.725979">
                <ele>165.484131</ele>
                <time>2014-04-27T03:12:15Z</time>
            </trkpt>
            <trkpt lon="101.191499" lat="14.726099">
                <ele>165.484131</ele>
                <time>2014-04-27T03:12:32Z</time>
            </trkpt>
            <trkpt lon="101.191507" lat="14.726188">
                <ele>162.600098</ele>
                <time>2014-04-27T03:12:48Z</time>
            </trkpt>
            <trkpt lon="101.191510" lat="14.726252">
                <ele>160.677490</ele>
                <time>2014-04-27T03:13:07Z</time>
            </trkpt>
            <trkpt lon="101.191466" lat="14.726342">
                <ele>159.716186</ele>
                <time>2014-04-27T03:13:26Z</time>
            </trkpt>
            <trkpt lon="101.191506" lat="14.726366">
                <ele>159.716186</ele>
                <time>2014-04-27T03:13:30Z</time>
            </trkpt>
            <trkpt lon="101.191955" lat="14.726754">
                <ele>161.158203</ele>
                <time>2014-04-27T03:14:07Z</time>
            </trkpt>
            <trkpt lon="101.192270" lat="14.726811">
                <ele>162.600098</ele>
                <time>2014-04-27T03:14:28Z</time>
            </trkpt>
            <trkpt lon="101.192648" lat="14.726854">
                <ele>166.926025</ele>
                <time>2014-04-27T03:14:50Z</time>
            </trkpt>
            <trkpt lon="101.192744" lat="14.726885">
                <ele>167.406738</ele>
                <time>2014-04-27T03:14:57Z</time>
            </trkpt>
            <trkpt lon="101.193067" lat="14.726952">
                <ele>168.848755</ele>
                <time>2014-04-27T03:15:15Z</time>
            </trkpt>
            <trkpt lon="101.193627" lat="14.727010">
                <ele>167.406738</ele>
                <time>2014-04-27T03:15:27Z</time>
            </trkpt>
            <trkpt lon="101.194592" lat="14.727067">
                <ele>167.406738</ele>
                <time>2014-04-27T03:15:40Z</time>
            </trkpt>
            <trkpt lon="101.195313" lat="14.727102">
                <ele>166.926025</ele>
                <time>2014-04-27T03:15:56Z</time>
            </trkpt>
            <trkpt lon="101.196066" lat="14.727099">
                <ele>167.887329</ele>
                <time>2014-04-27T03:16:18Z</time>
            </trkpt>
            <trkpt lon="101.196475" lat="14.727119">
                <ele>171.252075</ele>
                <time>2014-04-27T03:16:36Z</time>
            </trkpt>
            <trkpt lon="101.196875" lat="14.727131">
                <ele>173.655273</ele>
                <time>2014-04-27T03:16:57Z</time>
            </trkpt>
            <trkpt lon="101.197423" lat="14.727164">
                <ele>175.097290</ele>
                <time>2014-04-27T03:17:21Z</time>
            </trkpt>
            <trkpt lon="101.197702" lat="14.727186">
                <ele>178.942627</ele>
                <time>2014-04-27T03:17:36Z</time>
            </trkpt>
            <trkpt lon="101.197780" lat="14.727159">
                <ele>179.903809</ele>
                <time>2014-04-27T03:17:40Z</time>
            </trkpt>
            <trkpt lon="101.198210" lat="14.727194">
                <ele>181.826416</ele>
                <time>2014-04-27T03:18:01Z</time>
            </trkpt>
            <trkpt lon="101.198647" lat="14.727234">
                <ele>184.229858</ele>
                <time>2014-04-27T03:18:20Z</time>
            </trkpt>
            <trkpt lon="101.198987" lat="14.727271">
                <ele>186.633179</ele>
                <time>2014-04-27T03:18:35Z</time>
            </trkpt>
            <trkpt lon="101.199325" lat="14.727104">
                <ele>189.516968</ele>
                <time>2014-04-27T03:18:51Z</time>
            </trkpt>
            <trkpt lon="101.199650" lat="14.726673">
                <ele>189.997681</ele>
                <time>2014-04-27T03:19:07Z</time>
            </trkpt>
            <trkpt lon="101.199691" lat="14.726478">
                <ele>189.997681</ele>
                <time>2014-04-27T03:19:12Z</time>
            </trkpt>
            <trkpt lon="101.199536" lat="14.726122">
                <ele>189.516968</ele>
                <time>2014-04-27T03:19:22Z</time>
            </trkpt>
            <trkpt lon="101.199342" lat="14.725919">
                <ele>189.516968</ele>
                <time>2014-04-27T03:19:29Z</time>
            </trkpt>
            <trkpt lon="101.199412" lat="14.725622">
                <ele>188.555786</ele>
                <time>2014-04-27T03:19:37Z</time>
            </trkpt>
            <trkpt lon="101.199709" lat="14.725664">
                <ele>188.075073</ele>
                <time>2014-04-27T03:19:43Z</time>
            </trkpt>
            <trkpt lon="101.200709" lat="14.726154">
                <ele>184.710571</ele>
                <time>2014-04-27T03:20:01Z</time>
            </trkpt>
            <trkpt lon="101.201450" lat="14.726399">
                <ele>181.826416</ele>
                <time>2014-04-27T03:22:23Z</time>
            </trkpt>
            <trkpt lon="101.201479" lat="14.726306">
                <ele>183.268433</ele>
                <time>2014-04-27T03:22:28Z</time>
            </trkpt>
            <trkpt lon="101.201703" lat="14.726048">
                <ele>185.191162</ele>
                <time>2014-04-27T03:22:46Z</time>
            </trkpt>
            <trkpt lon="101.202090" lat="14.725661">
                <ele>184.710571</ele>
                <time>2014-04-27T03:22:58Z</time>
            </trkpt>
            <trkpt lon="101.202275" lat="14.725430">
                <ele>187.113769</ele>
                <time>2014-04-27T03:23:10Z</time>
            </trkpt>
            <trkpt lon="101.202398" lat="14.725171">
                <ele>189.997681</ele>
                <time>2014-04-27T03:23:29Z</time>
            </trkpt>
            <trkpt lon="101.202595" lat="14.724971">
                <ele>190.478394</ele>
                <time>2014-04-27T03:23:45Z</time>
            </trkpt>
            <trkpt lon="101.202928" lat="14.724617">
                <ele>192.881714</ele>
                <time>2014-04-27T03:24:04Z</time>
            </trkpt>
            <trkpt lon="101.203084" lat="14.724415">
                <ele>192.881714</ele>
                <time>2014-04-27T03:24:11Z</time>
            </trkpt>
            <trkpt lon="101.203265" lat="14.723914">
                <ele>189.036377</ele>
                <time>2014-04-27T03:24:27Z</time>
            </trkpt>
            <trkpt lon="101.203286" lat="14.723766">
                <ele>188.075073</ele>
                <time>2014-04-27T03:24:32Z</time>
            </trkpt>
            <trkpt lon="101.202741" lat="14.723277">
                <ele>187.113769</ele>
                <time>2014-04-27T03:24:49Z</time>
            </trkpt>
            <trkpt lon="101.202566" lat="14.723002">
                <ele>188.075073</ele>
                <time>2014-04-27T03:25:03Z</time>
            </trkpt>
            <trkpt lon="101.202573" lat="14.722654">
                <ele>189.997681</ele>
                <time>2014-04-27T03:25:20Z</time>
            </trkpt>
            <trkpt lon="101.202604" lat="14.722358">
                <ele>191.439575</ele>
                <time>2014-04-27T03:25:34Z</time>
            </trkpt>
            <trkpt lon="101.202412" lat="14.722002">
                <ele>191.439575</ele>
                <time>2014-04-27T03:25:50Z</time>
            </trkpt>
            <trkpt lon="101.202271" lat="14.721867">
                <ele>191.920288</ele>
                <time>2014-04-27T03:25:56Z</time>
            </trkpt>
            <trkpt lon="101.202269" lat="14.721589">
                <ele>193.362305</ele>
                <time>2014-04-27T03:26:10Z</time>
            </trkpt>
            <trkpt lon="101.202316" lat="14.721271">
                <ele>195.765625</ele>
                <time>2014-04-27T03:26:30Z</time>
            </trkpt>
            <trkpt lon="101.202437" lat="14.720975">
                <ele>196.726929</ele>
                <time>2014-04-27T03:26:48Z</time>
            </trkpt>
            <trkpt lon="101.202499" lat="14.720794">
                <ele>197.688232</ele>
                <time>2014-04-27T03:26:55Z</time>
            </trkpt>
            <trkpt lon="101.202341" lat="14.720676">
                <ele>200.091675</ele>
                <time>2014-04-27T03:27:09Z</time>
            </trkpt>
            <trkpt lon="101.202147" lat="14.720577">
                <ele>203.936890</ele>
                <time>2014-04-27T03:27:25Z</time>
            </trkpt>
            <trkpt lon="101.201946" lat="14.720455">
                <ele>207.301392</ele>
                <time>2014-04-27T03:27:40Z</time>
            </trkpt>
            <trkpt lon="101.201859" lat="14.720395">
                <ele>207.782105</ele>
                <time>2014-04-27T03:27:45Z</time>
            </trkpt>
            <trkpt lon="101.201562" lat="14.719912">
                <ele>205.378784</ele>
                <time>2014-04-27T03:27:59Z</time>
            </trkpt>
            <trkpt lon="101.201117" lat="14.719281">
                <ele>203.936890</ele>
                <time>2014-04-27T03:28:16Z</time>
            </trkpt>
            <trkpt lon="101.200652" lat="14.718844">
                <ele>203.456177</ele>
                <time>2014-04-27T03:28:34Z</time>
            </trkpt>
            <trkpt lon="101.200085" lat="14.718448">
                <ele>203.456177</ele>
                <time>2014-04-27T03:28:52Z</time>
            </trkpt>
            <trkpt lon="101.199840" lat="14.718140">
                <ele>204.417481</ele>
                <time>2014-04-27T03:29:05Z</time>
            </trkpt>
            <trkpt lon="101.199985" lat="14.717843">
                <ele>206.340088</ele>
                <time>2014-04-27T03:29:21Z</time>
            </trkpt>
            <trkpt lon="101.200117" lat="14.717498">
                <ele>210.185425</ele>
                <time>2014-04-27T03:29:42Z</time>
            </trkpt>
            <trkpt lon="101.200256" lat="14.717120">
                <ele>213.550049</ele>
                <time>2014-04-27T03:30:02Z</time>
            </trkpt>
            <trkpt lon="101.200362" lat="14.716752">
                <ele>214.991943</ele>
                <time>2014-04-27T03:30:23Z</time>
            </trkpt>
            <trkpt lon="101.200458" lat="14.716482">
                <ele>218.837280</ele>
                <time>2014-04-27T03:30:41Z</time>
            </trkpt>
            <trkpt lon="101.200561" lat="14.716173">
                <ele>220.759888</ele>
                <time>2014-04-27T03:30:59Z</time>
            </trkpt>
            <trkpt lon="101.200671" lat="14.715839">
                <ele>223.643799</ele>
                <time>2014-04-27T03:31:21Z</time>
            </trkpt>
            <trkpt lon="101.200760" lat="14.715545">
                <ele>226.527832</ele>
                <time>2014-04-27T03:31:42Z</time>
            </trkpt>
            <trkpt lon="101.200864" lat="14.715393">
                <ele>228.450439</ele>
                <time>2014-04-27T03:31:59Z</time>
            </trkpt>
            <trkpt lon="101.200991" lat="14.715396">
                <ele>228.450439</ele>
                <time>2014-04-27T03:32:14Z</time>
            </trkpt>
            <trkpt lon="101.201181" lat="14.715435">
                <ele>229.411743</ele>
                <time>2014-04-27T03:32:33Z</time>
            </trkpt>
            <trkpt lon="101.201428" lat="14.715446">
                <ele>227.008545</ele>
                <time>2014-04-27T03:32:51Z</time>
            </trkpt>
            <trkpt lon="101.201913" lat="14.715398">
                <ele>224.605225</ele>
                <time>2014-04-27T03:33:00Z</time>
            </trkpt>
            <trkpt lon="101.202313" lat="14.715336">
                <ele>225.085938</ele>
                <time>2014-04-27T03:33:11Z</time>
            </trkpt>
            <trkpt lon="101.202625" lat="14.715322">
                <ele>225.085938</ele>
                <time>2014-04-27T03:33:19Z</time>
            </trkpt>
            <trkpt lon="101.202629" lat="14.715396">
                <ele>224.124512</ele>
                <time>2014-04-27T03:33:29Z</time>
            </trkpt>
            <trkpt lon="101.202585" lat="14.715586">
                <ele>225.085938</ele>
                <time>2014-04-27T03:33:43Z</time>
            </trkpt>
            <trkpt lon="101.202882" lat="14.715805">
                <ele>223.163208</ele>
                <time>2014-04-27T03:33:54Z</time>
            </trkpt>
            <trkpt lon="101.203504" lat="14.716153">
                <ele>221.240601</ele>
                <time>2014-04-27T03:34:10Z</time>
            </trkpt>
            <trkpt lon="101.203904" lat="14.716413">
                <ele>219.317993</ele>
                <time>2014-04-27T03:34:19Z</time>
            </trkpt>
            <trkpt lon="101.204457" lat="14.716715">
                <ele>216.914673</ele>
                <time>2014-04-27T03:34:30Z</time>
            </trkpt>
            <trkpt lon="101.204559" lat="14.716901">
                <ele>215.472656</ele>
                <time>2014-04-27T03:34:36Z</time>
            </trkpt>
            <trkpt lon="101.204456" lat="14.717100">
                <ele>215.953247</ele>
                <time>2014-04-27T03:34:52Z</time>
            </trkpt>
            <trkpt lon="101.204471" lat="14.717373">
                <ele>217.395386</ele>
                <time>2014-04-27T03:35:09Z</time>
            </trkpt>
            <trkpt lon="101.204770" lat="14.717647">
                <ele>216.914673</ele>
                <time>2014-04-27T03:35:22Z</time>
            </trkpt>
            <trkpt lon="101.205064" lat="14.717800">
                <ele>216.433960</ele>
                <time>2014-04-27T03:35:34Z</time>
            </trkpt>
            <trkpt lon="101.205652" lat="14.718051">
                <ele>214.511231</ele>
                <time>2014-04-27T03:35:52Z</time>
            </trkpt>
            <trkpt lon="101.206064" lat="14.718208">
                <ele>211.627441</ele>
                <time>2014-04-27T03:36:04Z</time>
            </trkpt>
            <trkpt lon="101.206093" lat="14.718311">
                <ele>211.627441</ele>
                <time>2014-04-27T03:36:09Z</time>
            </trkpt>
            <trkpt lon="101.206017" lat="14.718784">
                <ele>211.627441</ele>
                <time>2014-04-27T03:36:29Z</time>
            </trkpt>
            <trkpt lon="101.206042" lat="14.719018">
                <ele>212.108032</ele>
                <time>2014-04-27T03:36:37Z</time>
            </trkpt>
            <trkpt lon="101.206148" lat="14.719108">
                <ele>211.146728</ele>
                <time>2014-04-27T03:36:41Z</time>
            </trkpt>
            <trkpt lon="101.206603" lat="14.719308">
                <ele>211.627441</ele>
                <time>2014-04-27T03:36:56Z</time>
            </trkpt>
            <trkpt lon="101.206800" lat="14.719483">
                <ele>214.030640</ele>
                <time>2014-04-27T03:37:14Z</time>
            </trkpt>
            <trkpt lon="101.206960" lat="14.719611">
                <ele>216.914673</ele>
                <time>2014-04-27T03:37:28Z</time>
            </trkpt>
            <trkpt lon="101.206998" lat="14.719625">
                <ele>217.875977</ele>
                <time>2014-04-27T03:37:43Z</time>
            </trkpt>
            <trkpt lon="101.207184" lat="14.719679">
                <ele>221.721191</ele>
                <time>2014-04-27T03:39:01Z</time>
            </trkpt>
            <trkpt lon="101.207706" lat="14.719767">
                <ele>219.798584</ele>
                <time>2014-04-27T03:39:16Z</time>
            </trkpt>
            <trkpt lon="101.208790" lat="14.720022">
                <ele>214.991943</ele>
                <time>2014-04-27T03:39:38Z</time>
            </trkpt>
            <trkpt lon="101.209388" lat="14.720272">
                <ele>212.588623</ele>
                <time>2014-04-27T03:39:50Z</time>
            </trkpt>
            <trkpt lon="101.209846" lat="14.720292">
                <ele>208.262817</ele>
                <time>2014-04-27T03:40:00Z</time>
            </trkpt>
            <trkpt lon="101.210587" lat="14.720498">
                <ele>200.572266</ele>
                <time>2014-04-27T03:40:16Z</time>
            </trkpt>
            <trkpt lon="101.211581" lat="14.720770">
                <ele>195.765625</ele>
                <time>2014-04-27T03:40:36Z</time>
            </trkpt>
            <trkpt lon="101.212583" lat="14.721032">
                <ele>189.997681</ele>
                <time>2014-04-27T03:40:55Z</time>
            </trkpt>
            <trkpt lon="101.213152" lat="14.721170">
                <ele>188.555786</ele>
                <time>2014-04-27T03:41:04Z</time>
            </trkpt>
            <trkpt lon="101.213494" lat="14.721227">
                <ele>187.113769</ele>
                <time>2014-04-27T03:41:15Z</time>
            </trkpt>
            <trkpt lon="101.213971" lat="14.721358">
                <ele>185.671753</ele>
                <time>2014-04-27T03:41:28Z</time>
            </trkpt>
            <trkpt lon="101.214362" lat="14.721570">
                <ele>189.516968</ele>
                <time>2014-04-27T03:41:43Z</time>
            </trkpt>
            <trkpt lon="101.214597" lat="14.721678">
                <ele>190.958984</ele>
                <time>2014-04-27T03:41:57Z</time>
            </trkpt>
            <trkpt lon="101.214829" lat="14.721514">
                <ele>190.478394</ele>
                <time>2014-04-27T03:42:12Z</time>
            </trkpt>
            <trkpt lon="101.216083" lat="14.721306">
                <ele>187.113769</ele>
                <time>2014-04-27T03:42:52Z</time>
            </trkpt>
            <trkpt lon="101.216485" lat="14.721262">
                <ele>186.633179</ele>
                <time>2014-04-27T03:43:01Z</time>
            </trkpt>
            <trkpt lon="101.217129" lat="14.721580">
                <ele>182.787842</ele>
                <time>2014-04-27T03:43:15Z</time>
            </trkpt>
            <trkpt lon="101.218000" lat="14.721984">
                <ele>182.307129</ele>
                <time>2014-04-27T03:43:24Z</time>
            </trkpt>
            <trkpt lon="101.218013" lat="14.721982">
                <ele>182.787842</ele>
                <time>2014-04-27T03:43:30Z</time>
            </trkpt>
            <trkpt lon="101.218184" lat="14.721913">
                <ele>187.113769</ele>
                <time>2014-04-27T03:43:48Z</time>
            </trkpt>
            <trkpt lon="101.218194" lat="14.721928">
                <ele>188.075073</ele>
                <time>2014-04-27T03:43:50Z</time>
            </trkpt>
            <trkpt lon="101.218163" lat="14.722039">
                <ele>187.594360</ele>
                <time>2014-04-27T03:43:56Z</time>
            </trkpt>
            <trkpt lon="101.218243" lat="14.722639">
                <ele>187.113769</ele>
                <time>2014-04-27T03:44:09Z</time>
            </trkpt>
            <trkpt lon="101.218517" lat="14.723132">
                <ele>187.594360</ele>
                <time>2014-04-27T03:44:22Z</time>
            </trkpt>
            <trkpt lon="101.218988" lat="14.723791">
                <ele>186.633179</ele>
                <time>2014-04-27T03:44:39Z</time>
            </trkpt>
            <trkpt lon="101.219249" lat="14.724206">
                <ele>187.113769</ele>
                <time>2014-04-27T03:44:53Z</time>
            </trkpt>
            <trkpt lon="101.219462" lat="14.724607">
                <ele>185.191162</ele>
                <time>2014-04-27T03:45:06Z</time>
            </trkpt>
            <trkpt lon="101.219543" lat="14.724806">
                <ele>184.710571</ele>
                <time>2014-04-27T03:45:15Z</time>
            </trkpt>
            <trkpt lon="101.219731" lat="14.725258">
                <ele>186.152466</ele>
                <time>2014-04-27T03:45:30Z</time>
            </trkpt>
            <trkpt lon="101.220091" lat="14.725786">
                <ele>185.191162</ele>
                <time>2014-04-27T03:45:47Z</time>
            </trkpt>
            <trkpt lon="101.220698" lat="14.726541">
                <ele>184.229858</ele>
                <time>2014-04-27T03:46:07Z</time>
            </trkpt>
            <trkpt lon="101.221227" lat="14.727092">
                <ele>181.826416</ele>
                <time>2014-04-27T03:46:25Z</time>
            </trkpt>
            <trkpt lon="101.221741" lat="14.727495">
                <ele>181.826416</ele>
                <time>2014-04-27T03:46:42Z</time>
            </trkpt>
            <trkpt lon="101.221838" lat="14.727489">
                <ele>182.307129</ele>
                <time>2014-04-27T03:46:46Z</time>
            </trkpt>
            <trkpt lon="101.221935" lat="14.727883">
                <ele>186.152466</ele>
                <time>2014-04-27T03:47:04Z</time>
            </trkpt>
            <trkpt lon="101.221949" lat="14.727927">
                <ele>186.633179</ele>
                <time>2014-04-27T03:47:06Z</time>
            </trkpt>
            <trkpt lon="101.222095" lat="14.727966">
                <ele>186.633179</ele>
                <time>2014-04-27T03:47:12Z</time>
            </trkpt>
            <trkpt lon="101.222729" lat="14.727915">
                <ele>187.113769</ele>
                <time>2014-04-27T03:47:31Z</time>
            </trkpt>
            <trkpt lon="101.223525" lat="14.728023">
                <ele>189.036377</ele>
                <time>2014-04-27T03:48:08Z</time>
            </trkpt>
            <trkpt lon="101.224012" lat="14.727933">
                <ele>190.478394</ele>
                <time>2014-04-27T03:48:28Z</time>
            </trkpt>
            <trkpt lon="101.224284" lat="14.727887">
                <ele>190.478394</ele>
                <time>2014-04-27T03:48:35Z</time>
            </trkpt>
            <trkpt lon="101.224358" lat="14.727871">
                <ele>190.478394</ele>
                <time>2014-04-27T03:48:41Z</time>
            </trkpt>
            <trkpt lon="101.224997" lat="14.727755">
                <ele>191.920288</ele>
                <time>2014-04-27T03:48:56Z</time>
            </trkpt>
            <trkpt lon="101.225932" lat="14.727644">
                <ele>194.323731</ele>
                <time>2014-04-27T03:49:18Z</time>
            </trkpt>
            <trkpt lon="101.226603" lat="14.727486">
                <ele>196.246338</ele>
                <time>2014-04-27T03:49:37Z</time>
            </trkpt>
            <trkpt lon="101.227556" lat="14.727279">
                <ele>196.726929</ele>
                <time>2014-04-27T03:50:01Z</time>
            </trkpt>
            <trkpt lon="101.228188" lat="14.727220">
                <ele>198.168945</ele>
                <time>2014-04-27T03:50:21Z</time>
            </trkpt>
            <trkpt lon="101.228956" lat="14.727142">
                <ele>197.688232</ele>
                <time>2014-04-27T03:50:43Z</time>
            </trkpt>
            <trkpt lon="101.229856" lat="14.727045">
                <ele>197.688232</ele>
                <time>2014-04-27T03:51:07Z</time>
            </trkpt>
            <trkpt lon="101.231015" lat="14.727211">
                <ele>195.284912</ele>
                <time>2014-04-27T03:51:29Z</time>
            </trkpt>
            <trkpt lon="101.231267" lat="14.727229">
                <ele>193.362305</ele>
                <time>2014-04-27T03:51:34Z</time>
            </trkpt>
            <trkpt lon="101.232132" lat="14.727284">
                <ele>192.401123</ele>
                <time>2014-04-27T03:51:50Z</time>
            </trkpt>
            <trkpt lon="101.232504" lat="14.727538">
                <ele>191.439575</ele>
                <time>2014-04-27T03:52:01Z</time>
            </trkpt>
            <trkpt lon="101.233006" lat="14.728038">
                <ele>191.920288</ele>
                <time>2014-04-27T03:52:16Z</time>
            </trkpt>
            <trkpt lon="101.233639" lat="14.728240">
                <ele>190.478394</ele>
                <time>2014-04-27T03:52:29Z</time>
            </trkpt>
            <trkpt lon="101.234353" lat="14.728259">
                <ele>189.997681</ele>
                <time>2014-04-27T03:52:46Z</time>
            </trkpt>
            <trkpt lon="101.234817" lat="14.728049">
                <ele>191.920288</ele>
                <time>2014-04-27T03:53:02Z</time>
            </trkpt>
            <trkpt lon="101.235277" lat="14.728054">
                <ele>191.920288</ele>
                <time>2014-04-27T03:53:18Z</time>
            </trkpt>
            <trkpt lon="101.235740" lat="14.728113">
                <ele>190.958984</ele>
                <time>2014-04-27T03:53:36Z</time>
            </trkpt>
            <trkpt lon="101.236116" lat="14.728082">
                <ele>189.036377</ele>
                <time>2014-04-27T03:53:45Z</time>
            </trkpt>
            <trkpt lon="101.236309" lat="14.728152">
                <ele>188.075073</ele>
                <time>2014-04-27T03:53:49Z</time>
            </trkpt>
            <trkpt lon="101.236383" lat="14.728211">
                <ele>187.594360</ele>
                <time>2014-04-27T03:53:51Z</time>
            </trkpt>
            <trkpt lon="101.237115" lat="14.728422">
                <ele>187.113769</ele>
                <time>2014-04-27T03:54:10Z</time>
            </trkpt>
            <trkpt lon="101.237329" lat="14.728174">
                <ele>189.516968</ele>
                <time>2014-04-27T03:54:22Z</time>
            </trkpt>
            <trkpt lon="101.237332" lat="14.728144">
                <ele>189.997681</ele>
                <time>2014-04-27T03:54:24Z</time>
            </trkpt>
            <trkpt lon="101.237362" lat="14.727898">
                <ele>192.401123</ele>
                <time>2014-04-27T03:54:42Z</time>
            </trkpt>
            <trkpt lon="101.237354" lat="14.727593">
                <ele>193.843018</ele>
                <time>2014-04-27T03:54:59Z</time>
            </trkpt>
            <trkpt lon="101.237307" lat="14.726755">
                <ele>194.804321</ele>
                <time>2014-04-27T03:55:32Z</time>
            </trkpt>
            <trkpt lon="101.237337" lat="14.726245">
                <ele>194.323731</ele>
                <time>2014-04-27T03:55:53Z</time>
            </trkpt>
            <trkpt lon="101.237280" lat="14.725825">
                <ele>193.843018</ele>
                <time>2014-04-27T03:56:13Z</time>
            </trkpt>
            <trkpt lon="101.237322" lat="14.725506">
                <ele>195.284912</ele>
                <time>2014-04-27T03:56:30Z</time>
            </trkpt>
            <trkpt lon="101.237318" lat="14.725261">
                <ele>202.014282</ele>
                <time>2014-04-27T03:56:50Z</time>
            </trkpt>
            <trkpt lon="101.237302" lat="14.724999">
                <ele>205.859497</ele>
                <time>2014-04-27T03:57:12Z</time>
            </trkpt>
            <trkpt lon="101.237277" lat="14.724509">
                <ele>205.859497</ele>
                <time>2014-04-27T03:57:32Z</time>
            </trkpt>
            <trkpt lon="101.237242" lat="14.724016">
                <ele>210.185425</ele>
                <time>2014-04-27T03:57:55Z</time>
            </trkpt>
            <trkpt lon="101.237201" lat="14.723879">
                <ele>210.666016</ele>
                <time>2014-04-27T03:58:05Z</time>
            </trkpt>
            <trkpt lon="101.236707" lat="14.723930">
                <ele>210.185425</ele>
                <time>2014-04-27T03:58:21Z</time>
            </trkpt>
            <trkpt lon="101.235842" lat="14.724117">
                <ele>204.417481</ele>
                <time>2014-04-27T03:58:39Z</time>
            </trkpt>
            <trkpt lon="101.235643" lat="14.724173">
                <ele>203.456177</ele>
                <time>2014-04-27T03:58:43Z</time>
            </trkpt>
            <trkpt lon="101.235534" lat="14.724304">
                <ele>202.975464</ele>
                <time>2014-04-27T03:58:49Z</time>
            </trkpt>
            <trkpt lon="101.235506" lat="14.724345">
                <ele>202.494873</ele>
                <time>2014-04-27T03:59:01Z</time>
            </trkpt>
            <trkpt lon="101.235499" lat="14.724346">
                <ele>201.533569</ele>
                <time>2014-04-27T03:59:15Z</time>
            </trkpt>
            <trkpt lon="101.235485" lat="14.724320">
                <ele>205.378784</ele>
                <time>2014-04-27T04:20:48Z</time>
            </trkpt>
            <trkpt lon="101.235457" lat="14.724278">
                <ele>207.301392</ele>
                <time>2014-04-27T04:21:09Z</time>
            </trkpt>
            <trkpt lon="101.235407" lat="14.724292">
                <ele>206.820679</ele>
                <time>2014-04-27T04:21:13Z</time>
            </trkpt>
            <trkpt lon="101.235347" lat="14.724322">
                <ele>204.417481</ele>
                <time>2014-04-27T04:21:28Z</time>
            </trkpt>
            <trkpt lon="101.235329" lat="14.724326">
                <ele>203.456177</ele>
                <time>2014-04-27T04:21:50Z</time>
            </trkpt>
            <trkpt lon="101.235309" lat="14.724315">
                <ele>202.494873</ele>
                <time>2014-04-27T04:21:59Z</time>
            </trkpt>
            <trkpt lon="101.235298" lat="14.724304">
                <ele>202.014282</ele>
                <time>2014-04-27T04:22:01Z</time>
            </trkpt>
            <trkpt lon="101.235369" lat="14.724259">
                <ele>202.014282</ele>
                <time>2014-04-27T04:22:07Z</time>
            </trkpt>
            <trkpt lon="101.235828" lat="14.724144">
                <ele>203.936890</ele>
                <time>2014-04-27T04:22:27Z</time>
            </trkpt>
            <trkpt lon="101.236293" lat="14.724019">
                <ele>205.859497</ele>
                <time>2014-04-27T04:22:48Z</time>
            </trkpt>
            <trkpt lon="101.236922" lat="14.723909">
                <ele>206.820679</ele>
                <time>2014-04-27T04:23:11Z</time>
            </trkpt>
            <trkpt lon="101.237799" lat="14.723810">
                <ele>207.301392</ele>
                <time>2014-04-27T04:23:35Z</time>
            </trkpt>
            <trkpt lon="101.238624" lat="14.723745">
                <ele>208.262817</ele>
                <time>2014-04-27T04:23:53Z</time>
            </trkpt>
            <trkpt lon="101.239473" lat="14.723781">
                <ele>206.340088</ele>
                <time>2014-04-27T04:24:06Z</time>
            </trkpt>
            <trkpt lon="101.240393" lat="14.723968">
                <ele>206.820679</ele>
                <time>2014-04-27T04:24:22Z</time>
            </trkpt>
            <trkpt lon="101.240994" lat="14.723759">
                <ele>211.146728</ele>
                <time>2014-04-27T04:24:40Z</time>
            </trkpt>
            <trkpt lon="101.241585" lat="14.723394">
                <ele>211.627441</ele>
                <time>2014-04-27T04:25:00Z</time>
            </trkpt>
            <trkpt lon="101.242201" lat="14.722911">
                <ele>213.069336</ele>
                <time>2014-04-27T04:25:22Z</time>
            </trkpt>
            <trkpt lon="101.242724" lat="14.722487">
                <ele>213.550049</ele>
                <time>2014-04-27T04:25:41Z</time>
            </trkpt>
            <trkpt lon="101.243247" lat="14.722043">
                <ele>216.433960</ele>
                <time>2014-04-27T04:26:01Z</time>
            </trkpt>
            <trkpt lon="101.243627" lat="14.721585">
                <ele>216.433960</ele>
                <time>2014-04-27T04:26:23Z</time>
            </trkpt>
            <trkpt lon="101.243831" lat="14.721106">
                <ele>219.798584</ele>
                <time>2014-04-27T04:26:41Z</time>
            </trkpt>
            <trkpt lon="101.243986" lat="14.720814">
                <ele>219.317993</ele>
                <time>2014-04-27T04:26:51Z</time>
            </trkpt>
            <trkpt lon="101.244295" lat="14.720521">
                <ele>219.798584</ele>
                <time>2014-04-27T04:27:03Z</time>
            </trkpt>
            <trkpt lon="101.244151" lat="14.719922">
                <ele>218.837280</ele>
                <time>2014-04-27T04:27:23Z</time>
            </trkpt>
            <trkpt lon="101.243887" lat="14.719311">
                <ele>223.643799</ele>
                <time>2014-04-27T04:27:45Z</time>
            </trkpt>
            <trkpt lon="101.243414" lat="14.719011">
                <ele>225.085938</ele>
                <time>2014-04-27T04:28:00Z</time>
            </trkpt>
            <trkpt lon="101.242709" lat="14.718795">
                <ele>225.085938</ele>
                <time>2014-04-27T04:28:17Z</time>
            </trkpt>
            <trkpt lon="101.242380" lat="14.718067">
                <ele>227.969727</ele>
                <time>2014-04-27T04:28:36Z</time>
            </trkpt>
            <trkpt lon="101.242047" lat="14.717330">
                <ele>232.295776</ele>
                <time>2014-04-27T04:28:59Z</time>
            </trkpt>
            <trkpt lon="101.241908" lat="14.716793">
                <ele>234.699097</ele>
                <time>2014-04-27T04:29:18Z</time>
            </trkpt>
            <trkpt lon="101.241753" lat="14.716148">
                <ele>235.179688</ele>
                <time>2014-04-27T04:29:39Z</time>
            </trkpt>
            <trkpt lon="101.241598" lat="14.715386">
                <ele>235.179688</ele>
                <time>2014-04-27T04:30:00Z</time>
            </trkpt>
            <trkpt lon="101.241427" lat="14.714655">
                <ele>234.218384</ele>
                <time>2014-04-27T04:30:22Z</time>
            </trkpt>
            <trkpt lon="101.241168" lat="14.714038">
                <ele>236.621704</ele>
                <time>2014-04-27T04:30:40Z</time>
            </trkpt>
            <trkpt lon="101.240932" lat="14.713420">
                <ele>237.102295</ele>
                <time>2014-04-27T04:30:58Z</time>
            </trkpt>
            <trkpt lon="101.240768" lat="14.712914">
                <ele>237.102295</ele>
                <time>2014-04-27T04:31:12Z</time>
            </trkpt>
            <trkpt lon="101.240594" lat="14.712812">
                <ele>234.699097</ele>
                <time>2014-04-27T04:31:20Z</time>
            </trkpt>
            <trkpt lon="101.240155" lat="14.712826">
                <ele>235.179688</ele>
                <time>2014-04-27T04:31:39Z</time>
            </trkpt>
            <trkpt lon="101.239788" lat="14.712819">
                <ele>235.660278</ele>
                <time>2014-04-27T04:31:52Z</time>
            </trkpt>
            <trkpt lon="101.239019" lat="14.712675">
                <ele>233.737671</ele>
                <time>2014-04-27T04:32:14Z</time>
            </trkpt>
            <trkpt lon="101.238403" lat="14.712383">
                <ele>235.179688</ele>
                <time>2014-04-27T04:32:34Z</time>
            </trkpt>
            <trkpt lon="101.237844" lat="14.712112">
                <ele>234.699097</ele>
                <time>2014-04-27T04:32:52Z</time>
            </trkpt>
            <trkpt lon="101.237753" lat="14.712057">
                <ele>235.179688</ele>
                <time>2014-04-27T04:32:55Z</time>
            </trkpt>
            <trkpt lon="101.237704" lat="14.711938">
                <ele>234.699097</ele>
                <time>2014-04-27T04:32:59Z</time>
            </trkpt>
            <trkpt lon="101.237504" lat="14.711329">
                <ele>235.660278</ele>
                <time>2014-04-27T04:33:20Z</time>
            </trkpt>
            <trkpt lon="101.237503" lat="14.711302">
                <ele>234.699097</ele>
                <time>2014-04-27T04:33:21Z</time>
            </trkpt>
            <trkpt lon="101.237652" lat="14.711006">
                <ele>229.892334</ele>
                <time>2014-04-27T04:33:37Z</time>
            </trkpt>
            <trkpt lon="101.237554" lat="14.710469">
                <ele>225.566528</ele>
                <time>2014-04-27T04:33:57Z</time>
            </trkpt>
            <trkpt lon="101.237526" lat="14.709823">
                <ele>230.373047</ele>
                <time>2014-04-27T04:34:19Z</time>
            </trkpt>
            <trkpt lon="101.237656" lat="14.709528">
                <ele>229.411743</ele>
                <time>2014-04-27T04:34:39Z</time>
            </trkpt>
            <trkpt lon="101.237733" lat="14.709418">
                <ele>230.853760</ele>
                <time>2014-04-27T04:34:53Z</time>
            </trkpt>
            <trkpt lon="101.237791" lat="14.709331">
                <ele>232.295776</ele>
                <time>2014-04-27T04:35:00Z</time>
            </trkpt>
            <trkpt lon="101.237943" lat="14.709043">
                <ele>238.544311</ele>
                <time>2014-04-27T04:35:21Z</time>
            </trkpt>
            <trkpt lon="101.237983" lat="14.708853">
                <ele>240.947632</ele>
                <time>2014-04-27T04:35:37Z</time>
            </trkpt>
            <trkpt lon="101.237988" lat="14.708815">
                <ele>226.047119</ele>
                <time>2014-04-27T04:40:14Z</time>
            </trkpt>
            <trkpt lon="101.237939" lat="14.709044">
                <ele>231.334351</ele>
                <time>2014-04-27T04:40:33Z</time>
            </trkpt>
            <trkpt lon="101.237835" lat="14.709264">
                <ele>233.737671</ele>
                <time>2014-04-27T04:40:40Z</time>
            </trkpt>
            <trkpt lon="101.237528" lat="14.709689">
                <ele>233.737671</ele>
                <time>2014-04-27T04:40:53Z</time>
            </trkpt>
            <trkpt lon="101.237462" lat="14.709903">
                <ele>233.257080</ele>
                <time>2014-04-27T04:40:58Z</time>
            </trkpt>
            <trkpt lon="101.237623" lat="14.710886">
                <ele>231.814941</ele>
                <time>2014-04-27T04:41:16Z</time>
            </trkpt>
            <trkpt lon="101.237637" lat="14.710935">
                <ele>231.814941</ele>
                <time>2014-04-27T04:41:17Z</time>
            </trkpt>
            <trkpt lon="101.237565" lat="14.711115">
                <ele>231.814941</ele>
                <time>2014-04-27T04:41:21Z</time>
            </trkpt>
            <trkpt lon="101.237508" lat="14.711194">
                <ele>231.814941</ele>
                <time>2014-04-27T04:41:23Z</time>
            </trkpt>
            <trkpt lon="101.237470" lat="14.711391">
                <ele>228.450439</ele>
                <time>2014-04-27T04:41:27Z</time>
            </trkpt>
            <trkpt lon="101.237632" lat="14.711927">
                <ele>226.527832</ele>
                <time>2014-04-27T04:41:38Z</time>
            </trkpt>
            <trkpt lon="101.237503" lat="14.711964">
                <ele>227.969727</ele>
                <time>2014-04-27T04:41:44Z</time>
            </trkpt>
            <trkpt lon="101.237072" lat="14.711816">
                <ele>226.047119</ele>
                <time>2014-04-27T04:42:03Z</time>
            </trkpt>
            <trkpt lon="101.236731" lat="14.711743">
                <ele>226.527832</ele>
                <time>2014-04-27T04:42:22Z</time>
            </trkpt>
            <trkpt lon="101.236447" lat="14.711591">
                <ele>229.892334</ele>
                <time>2014-04-27T04:42:41Z</time>
            </trkpt>
            <trkpt lon="101.236179" lat="14.711591">
                <ele>233.737671</ele>
                <time>2014-04-27T04:42:58Z</time>
            </trkpt>
            <trkpt lon="101.236120" lat="14.711805">
                <ele>238.063599</ele>
                <time>2014-04-27T04:43:12Z</time>
            </trkpt>
            <trkpt lon="101.236168" lat="14.711976">
                <ele>238.063599</ele>
                <time>2014-04-27T04:43:17Z</time>
            </trkpt>
            <trkpt lon="101.236114" lat="14.712146">
                <ele>238.063599</ele>
                <time>2014-04-27T04:43:21Z</time>
            </trkpt>
            <trkpt lon="101.235775" lat="14.712422">
                <ele>243.350830</ele>
                <time>2014-04-27T04:43:35Z</time>
            </trkpt>
            <trkpt lon="101.235497" lat="14.712459">
                <ele>247.676758</ele>
                <time>2014-04-27T04:43:51Z</time>
            </trkpt>
            <trkpt lon="101.235198" lat="14.712370">
                <ele>246.234863</ele>
                <time>2014-04-27T04:44:10Z</time>
            </trkpt>
            <trkpt lon="101.234832" lat="14.712278">
                <ele>247.676758</ele>
                <time>2014-04-27T04:44:32Z</time>
            </trkpt>
            <trkpt lon="101.234478" lat="14.712107">
                <ele>249.118774</ele>
                <time>2014-04-27T04:44:50Z</time>
            </trkpt>
            <trkpt lon="101.233931" lat="14.711693">
                <ele>249.599487</ele>
                <time>2014-04-27T04:45:06Z</time>
            </trkpt>
            <trkpt lon="101.233239" lat="14.711270">
                <ele>249.118774</ele>
                <time>2014-04-27T04:45:22Z</time>
            </trkpt>
            <trkpt lon="101.233089" lat="14.711204">
                <ele>249.118774</ele>
                <time>2014-04-27T04:45:26Z</time>
            </trkpt>
            <trkpt lon="101.232662" lat="14.710984">
                <ele>248.157593</ele>
                <time>2014-04-27T04:45:39Z</time>
            </trkpt>
            <trkpt lon="101.232559" lat="14.710902">
                <ele>248.157593</ele>
                <time>2014-04-27T04:45:42Z</time>
            </trkpt>
            <trkpt lon="101.232438" lat="14.710729">
                <ele>247.196045</ele>
                <time>2014-04-27T04:45:47Z</time>
            </trkpt>
            <trkpt lon="101.232335" lat="14.710543">
                <ele>245.754150</ele>
                <time>2014-04-27T04:45:52Z</time>
            </trkpt>
            <trkpt lon="101.232272" lat="14.710487">
                <ele>245.754150</ele>
                <time>2014-04-27T04:45:54Z</time>
            </trkpt>
            <trkpt lon="101.232100" lat="14.710413">
                <ele>245.754150</ele>
                <time>2014-04-27T04:45:58Z</time>
            </trkpt>
            <trkpt lon="101.231282" lat="14.710002">
                <ele>244.792847</ele>
                <time>2014-04-27T04:46:16Z</time>
            </trkpt>
            <trkpt lon="101.230555" lat="14.709668">
                <ele>243.831543</ele>
                <time>2014-04-27T04:46:36Z</time>
            </trkpt>
            <trkpt lon="101.230412" lat="14.709419">
                <ele>241.428223</ele>
                <time>2014-04-27T04:46:45Z</time>
            </trkpt>
            <trkpt lon="101.230232" lat="14.709329">
                <ele>239.024902</ele>
                <time>2014-04-27T04:46:51Z</time>
            </trkpt>
            <trkpt lon="101.229752" lat="14.709134">
                <ele>238.063599</ele>
                <time>2014-04-27T04:47:04Z</time>
            </trkpt>
            <trkpt lon="101.229123" lat="14.709253">
                <ele>234.699097</ele>
                <time>2014-04-27T04:47:20Z</time>
            </trkpt>
            <trkpt lon="101.228510" lat="14.709424">
                <ele>227.489136</ele>
                <time>2014-04-27T04:47:36Z</time>
            </trkpt>
            <trkpt lon="101.228269" lat="14.709557">
                <ele>224.605225</ele>
                <time>2014-04-27T04:47:42Z</time>
            </trkpt>
            <trkpt lon="101.228078" lat="14.709745">
                <ele>221.721191</ele>
                <time>2014-04-27T04:47:48Z</time>
            </trkpt>
            <trkpt lon="101.227738" lat="14.710397">
                <ele>216.433960</ele>
                <time>2014-04-27T04:48:05Z</time>
            </trkpt>
            <trkpt lon="101.227248" lat="14.711225">
                <ele>211.627441</ele>
                <time>2014-04-27T04:48:28Z</time>
            </trkpt>
            <trkpt lon="101.227042" lat="14.711674">
                <ele>210.666016</ele>
                <time>2014-04-27T04:48:42Z</time>
            </trkpt>
            <trkpt lon="101.226439" lat="14.712087">
                <ele>210.185425</ele>
                <time>2014-04-27T04:48:59Z</time>
            </trkpt>
            <trkpt lon="101.225689" lat="14.712462">
                <ele>207.782105</ele>
                <time>2014-04-27T04:49:16Z</time>
            </trkpt>
            <trkpt lon="101.225399" lat="14.712506">
                <ele>207.301392</ele>
                <time>2014-04-27T04:49:22Z</time>
            </trkpt>
            <trkpt lon="101.225122" lat="14.712493">
                <ele>205.378784</ele>
                <time>2014-04-27T04:49:28Z</time>
            </trkpt>
            <trkpt lon="101.224686" lat="14.712612">
                <ele>204.417481</ele>
                <time>2014-04-27T04:49:38Z</time>
            </trkpt>
            <trkpt lon="101.223905" lat="14.713746">
                <ele>200.572266</ele>
                <time>2014-04-27T04:50:07Z</time>
            </trkpt>
            <trkpt lon="101.223405" lat="14.714616">
                <ele>198.649536</ele>
                <time>2014-04-27T04:50:29Z</time>
            </trkpt>
            <trkpt lon="101.223013" lat="14.715174">
                <ele>196.726929</ele>
                <time>2014-04-27T04:50:45Z</time>
            </trkpt>
            <trkpt lon="101.222511" lat="14.715954">
                <ele>193.843018</ele>
                <time>2014-04-27T04:51:05Z</time>
            </trkpt>
            <trkpt lon="101.222448" lat="14.716036">
                <ele>194.323731</ele>
                <time>2014-04-27T04:51:07Z</time>
            </trkpt>
            <trkpt lon="101.221117" lat="14.715730">
                <ele>193.843018</ele>
                <time>2014-04-27T04:51:39Z</time>
            </trkpt>
            <trkpt lon="101.220979" lat="14.715634">
                <ele>193.843018</ele>
                <time>2014-04-27T04:51:44Z</time>
            </trkpt>
            <trkpt lon="101.220340" lat="14.715015">
                <ele>192.881714</ele>
                <time>2014-04-27T04:52:04Z</time>
            </trkpt>
            <trkpt lon="101.220307" lat="14.714994">
                <ele>191.920288</ele>
                <time>2014-04-27T04:52:05Z</time>
            </trkpt>
            <trkpt lon="101.219940" lat="14.714500">
                <ele>192.401123</ele>
                <time>2014-04-27T04:52:23Z</time>
            </trkpt>
            <trkpt lon="101.219130" lat="14.714344">
                <ele>191.920288</ele>
                <time>2014-04-27T04:52:50Z</time>
            </trkpt>
            <trkpt lon="101.218542" lat="14.714493">
                <ele>192.881714</ele>
                <time>2014-04-27T04:53:01Z</time>
            </trkpt>
            <trkpt lon="101.218435" lat="14.714573">
                <ele>192.881714</ele>
                <time>2014-04-27T04:53:04Z</time>
            </trkpt>
            <trkpt lon="101.218242" lat="14.714733">
                <ele>192.401123</ele>
                <time>2014-04-27T04:53:09Z</time>
            </trkpt>
            <trkpt lon="101.217328" lat="14.715115">
                <ele>190.958984</ele>
                <time>2014-04-27T04:53:30Z</time>
            </trkpt>
            <trkpt lon="101.216712" lat="14.715471">
                <ele>189.516968</ele>
                <time>2014-04-27T04:53:48Z</time>
            </trkpt>
            <trkpt lon="101.216924" lat="14.716333">
                <ele>189.516968</ele>
                <time>2014-04-27T04:54:06Z</time>
            </trkpt>
            <trkpt lon="101.217276" lat="14.717290">
                <ele>189.516968</ele>
                <time>2014-04-27T04:54:26Z</time>
            </trkpt>
            <trkpt lon="101.217362" lat="14.717532">
                <ele>190.478394</ele>
                <time>2014-04-27T04:54:32Z</time>
            </trkpt>
            <trkpt lon="101.217250" lat="14.717618">
                <ele>189.997681</ele>
                <time>2014-04-27T04:54:36Z</time>
            </trkpt>
            <trkpt lon="101.216807" lat="14.717795">
                <ele>189.516968</ele>
                <time>2014-04-27T04:54:48Z</time>
            </trkpt>
            <trkpt lon="101.216697" lat="14.717769">
                <ele>189.516968</ele>
                <time>2014-04-27T04:54:53Z</time>
            </trkpt>
            <trkpt lon="101.216605" lat="14.717747">
                <ele>189.516968</ele>
                <time>2014-04-27T04:54:58Z</time>
            </trkpt>
            <trkpt lon="101.216593" lat="14.717725">
                <ele>189.516968</ele>
                <time>2014-04-27T04:55:13Z</time>
            </trkpt>
            <trkpt lon="101.216342" lat="14.717771">
                <ele>190.478394</ele>
                <time>2014-04-27T04:55:30Z</time>
            </trkpt>
            <trkpt lon="101.216127" lat="14.717982">
                <ele>191.920288</ele>
                <time>2014-04-27T04:55:48Z</time>
            </trkpt>
            <trkpt lon="101.216046" lat="14.718477">
                <ele>196.726929</ele>
                <time>2014-04-27T04:56:04Z</time>
            </trkpt>
            <trkpt lon="101.215704" lat="14.718794">
                <ele>195.284912</ele>
                <time>2014-04-27T04:56:17Z</time>
            </trkpt>
            <trkpt lon="101.215081" lat="14.719006">
                <ele>192.881714</ele>
                <time>2014-04-27T04:56:38Z</time>
            </trkpt>
            <trkpt lon="101.214790" lat="14.718990">
                <ele>192.881714</ele>
                <time>2014-04-27T04:56:55Z</time>
            </trkpt>
            <trkpt lon="101.214508" lat="14.718997">
                <ele>193.362305</ele>
                <time>2014-04-27T04:57:11Z</time>
            </trkpt>
            <trkpt lon="101.214252" lat="14.718910">
                <ele>195.284912</ele>
                <time>2014-04-27T04:57:30Z</time>
            </trkpt>
            <trkpt lon="101.214011" lat="14.718736">
                <ele>197.207519</ele>
                <time>2014-04-27T04:57:49Z</time>
            </trkpt>
            <trkpt lon="101.213779" lat="14.718545">
                <ele>198.649536</ele>
                <time>2014-04-27T04:58:06Z</time>
            </trkpt>
            <trkpt lon="101.213619" lat="14.718324">
                <ele>201.052856</ele>
                <time>2014-04-27T04:58:24Z</time>
            </trkpt>
            <trkpt lon="101.213593" lat="14.718115">
                <ele>201.533569</ele>
                <time>2014-04-27T04:58:39Z</time>
            </trkpt>
            <trkpt lon="101.213247" lat="14.718001">
                <ele>201.533569</ele>
                <time>2014-04-27T04:58:54Z</time>
            </trkpt>
            <trkpt lon="101.212796" lat="14.717906">
                <ele>202.014282</ele>
                <time>2014-04-27T04:59:10Z</time>
            </trkpt>
            <trkpt lon="101.212423" lat="14.717811">
                <ele>202.975464</ele>
                <time>2014-04-27T04:59:30Z</time>
            </trkpt>
            <trkpt lon="101.212011" lat="14.717766">
                <ele>203.456177</ele>
                <time>2014-04-27T04:59:46Z</time>
            </trkpt>
            <trkpt lon="101.211521" lat="14.717549">
                <ele>202.975464</ele>
                <time>2014-04-27T05:00:03Z</time>
            </trkpt>
            <trkpt lon="101.211343" lat="14.717401">
                <ele>205.378784</ele>
                <time>2014-04-27T05:00:17Z</time>
            </trkpt>
            <trkpt lon="101.211185" lat="14.717224">
                <ele>208.262817</ele>
                <time>2014-04-27T05:00:34Z</time>
            </trkpt>
            <trkpt lon="101.211026" lat="14.717052">
                <ele>210.185425</ele>
                <time>2014-04-27T05:00:50Z</time>
            </trkpt>
            <trkpt lon="101.210666" lat="14.716867">
                <ele>210.666016</ele>
                <time>2014-04-27T05:01:05Z</time>
            </trkpt>
            <trkpt lon="101.210218" lat="14.716698">
                <ele>210.185425</ele>
                <time>2014-04-27T05:01:22Z</time>
            </trkpt>
            <trkpt lon="101.209919" lat="14.716605">
                <ele>210.185425</ele>
                <time>2014-04-27T05:01:35Z</time>
            </trkpt>
            <trkpt lon="101.209705" lat="14.716477">
                <ele>212.108032</ele>
                <time>2014-04-27T05:01:52Z</time>
            </trkpt>
            <trkpt lon="101.209512" lat="14.716333">
                <ele>214.511231</ele>
                <time>2014-04-27T05:02:10Z</time>
            </trkpt>
            <trkpt lon="101.209297" lat="14.716184">
                <ele>217.395386</ele>
                <time>2014-04-27T05:02:28Z</time>
            </trkpt>
            <trkpt lon="101.209103" lat="14.716057">
                <ele>218.356567</ele>
                <time>2014-04-27T05:02:45Z</time>
            </trkpt>
            <trkpt lon="101.208799" lat="14.715881">
                <ele>217.875977</ele>
                <time>2014-04-27T05:03:04Z</time>
            </trkpt>
            <trkpt lon="101.208439" lat="14.715805">
                <ele>221.721191</ele>
                <time>2014-04-27T05:03:24Z</time>
            </trkpt>
            <trkpt lon="101.208203" lat="14.715713">
                <ele>221.240601</ele>
                <time>2014-04-27T05:03:38Z</time>
            </trkpt>
            <trkpt lon="101.207850" lat="14.715521">
                <ele>223.643799</ele>
                <time>2014-04-27T05:03:58Z</time>
            </trkpt>
            <trkpt lon="101.207617" lat="14.715352">
                <ele>225.085938</ele>
                <time>2014-04-27T05:04:14Z</time>
            </trkpt>
            <trkpt lon="101.207569" lat="14.715312">
                <ele>225.566528</ele>
                <time>2014-04-27T05:04:18Z</time>
            </trkpt>
            <trkpt lon="101.207487" lat="14.715260">
                <ele>227.969727</ele>
                <time>2014-04-27T05:04:26Z</time>
            </trkpt>
            <trkpt lon="101.207411" lat="14.715218">
                <ele>229.892334</ele>
                <time>2014-04-27T05:04:43Z</time>
            </trkpt>
            <trkpt lon="101.207376" lat="14.715228">
                <ele>231.814941</ele>
                <time>2014-04-27T05:05:52Z</time>
            </trkpt>
            <trkpt lon="101.207156" lat="14.715052">
                <ele>229.892334</ele>
                <time>2014-04-27T05:06:04Z</time>
            </trkpt>
            <trkpt lon="101.206648" lat="14.714653">
                <ele>227.969727</ele>
                <time>2014-04-27T05:06:18Z</time>
            </trkpt>
            <trkpt lon="101.206268" lat="14.714448">
                <ele>228.931152</ele>
                <time>2014-04-27T05:06:34Z</time>
            </trkpt>
            <trkpt lon="101.205928" lat="14.714340">
                <ele>232.295776</ele>
                <time>2014-04-27T05:06:56Z</time>
            </trkpt>
            <trkpt lon="101.205882" lat="14.714296">
                <ele>232.776489</ele>
                <time>2014-04-27T05:07:01Z</time>
            </trkpt>
            <trkpt lon="101.205850" lat="14.714291">
                <ele>232.776489</ele>
                <time>2014-04-27T05:07:04Z</time>
            </trkpt>
            <trkpt lon="101.205550" lat="14.714144">
                <ele>230.853760</ele>
                <time>2014-04-27T05:07:21Z</time>
            </trkpt>
            <trkpt lon="101.204721" lat="14.713670">
                <ele>233.257080</ele>
                <time>2014-04-27T05:07:53Z</time>
            </trkpt>
            <trkpt lon="101.204472" lat="14.713252">
                <ele>231.814941</ele>
                <time>2014-04-27T05:08:04Z</time>
            </trkpt>
            <trkpt lon="101.204437" lat="14.713173">
                <ele>231.814941</ele>
                <time>2014-04-27T05:08:06Z</time>
            </trkpt>
            <trkpt lon="101.204474" lat="14.712861">
                <ele>232.295776</ele>
                <time>2014-04-27T05:08:13Z</time>
            </trkpt>
            <trkpt lon="101.204966" lat="14.711815">
                <ele>234.218384</ele>
                <time>2014-04-27T05:08:35Z</time>
            </trkpt>
            <trkpt lon="101.205044" lat="14.711602">
                <ele>234.699097</ele>
                <time>2014-04-27T05:08:40Z</time>
            </trkpt>
            <trkpt lon="101.204951" lat="14.711545">
                <ele>232.295776</ele>
                <time>2014-04-27T05:08:49Z</time>
            </trkpt>
            <trkpt lon="101.204826" lat="14.711693">
                <ele>226.047119</ele>
                <time>2014-04-27T05:09:06Z</time>
            </trkpt>
            <trkpt lon="101.204716" lat="14.711821">
                <ele>223.643799</ele>
                <time>2014-04-27T05:09:25Z</time>
            </trkpt>
            <trkpt lon="101.204527" lat="14.711962">
                <ele>222.682495</ele>
                <time>2014-04-27T05:09:47Z</time>
            </trkpt>
            <trkpt lon="101.204280" lat="14.712047">
                <ele>224.605225</ele>
                <time>2014-04-27T05:10:10Z</time>
            </trkpt>
            <trkpt lon="101.204067" lat="14.712165">
                <ele>226.527832</ele>
                <time>2014-04-27T05:10:33Z</time>
            </trkpt>
            <trkpt lon="101.204054" lat="14.712191">
                <ele>226.047119</ele>
                <time>2014-04-27T05:10:56Z</time>
            </trkpt>
            <trkpt lon="101.203947" lat="14.712279">
                <ele>226.527832</ele>
                <time>2014-04-27T05:11:19Z</time>
            </trkpt>
            <trkpt lon="101.203777" lat="14.712416">
                <ele>226.047119</ele>
                <time>2014-04-27T05:11:39Z</time>
            </trkpt>
            <trkpt lon="101.203608" lat="14.712473">
                <ele>227.969727</ele>
                <time>2014-04-27T05:11:58Z</time>
            </trkpt>
            <trkpt lon="101.203349" lat="14.712502">
                <ele>229.892334</ele>
                <time>2014-04-27T05:12:14Z</time>
            </trkpt>
            <trkpt lon="101.202943" lat="14.712565">
                <ele>230.373047</ele>
                <time>2014-04-27T05:12:31Z</time>
            </trkpt>
            <trkpt lon="101.202887" lat="14.712596">
                <ele>229.892334</ele>
                <time>2014-04-27T05:12:45Z</time>
            </trkpt>
            <trkpt lon="101.202732" lat="14.712698">
                <ele>225.566528</ele>
                <time>2014-04-27T05:12:57Z</time>
            </trkpt>
            <trkpt lon="101.202575" lat="14.712781">
                <ele>220.759888</ele>
                <time>2014-04-27T05:13:13Z</time>
            </trkpt>
            <trkpt lon="101.202460" lat="14.712822">
                <ele>217.875977</ele>
                <time>2014-04-27T05:13:30Z</time>
            </trkpt>
            <trkpt lon="101.202265" lat="14.712858">
                <ele>215.472656</ele>
                <time>2014-04-27T05:13:50Z</time>
            </trkpt>
            <trkpt lon="101.202054" lat="14.712863">
                <ele>211.146728</ele>
                <time>2014-04-27T05:14:10Z</time>
            </trkpt>
            <trkpt lon="101.201875" lat="14.712866">
                <ele>209.224121</ele>
                <time>2014-04-27T05:14:29Z</time>
            </trkpt>
            <trkpt lon="101.201574" lat="14.712678">
                <ele>209.224121</ele>
                <time>2014-04-27T05:14:39Z</time>
            </trkpt>
            <trkpt lon="101.200676" lat="14.712081">
                <ele>208.262817</ele>
                <time>2014-04-27T05:15:00Z</time>
            </trkpt>
            <trkpt lon="101.199820" lat="14.711605">
                <ele>208.262817</ele>
                <time>2014-04-27T05:15:20Z</time>
            </trkpt>
            <trkpt lon="101.199025" lat="14.711213">
                <ele>207.301392</ele>
                <time>2014-04-27T05:15:38Z</time>
            </trkpt>
            <trkpt lon="101.198982" lat="14.711193">
                <ele>206.820679</ele>
                <time>2014-04-27T05:15:39Z</time>
            </trkpt>
            <trkpt lon="101.198117" lat="14.710693">
                <ele>202.014282</ele>
                <time>2014-04-27T05:16:00Z</time>
            </trkpt>
            <trkpt lon="101.197218" lat="14.710330">
                <ele>198.649536</ele>
                <time>2014-04-27T05:16:20Z</time>
            </trkpt>
            <trkpt lon="101.196239" lat="14.710023">
                <ele>195.765625</ele>
                <time>2014-04-27T05:16:39Z</time>
            </trkpt>
            <trkpt lon="101.195387" lat="14.709650">
                <ele>197.688232</ele>
                <time>2014-04-27T05:16:58Z</time>
            </trkpt>
            <trkpt lon="101.194594" lat="14.709278">
                <ele>194.323731</ele>
                <time>2014-04-27T05:17:16Z</time>
            </trkpt>
            <trkpt lon="101.193703" lat="14.709015">
                <ele>191.920288</ele>
                <time>2014-04-27T05:17:36Z</time>
            </trkpt>
            <trkpt lon="101.192940" lat="14.708884">
                <ele>194.323731</ele>
                <time>2014-04-27T05:17:55Z</time>
            </trkpt>
            <trkpt lon="101.192199" lat="14.708818">
                <ele>194.804321</ele>
                <time>2014-04-27T05:18:11Z</time>
            </trkpt>
            <trkpt lon="101.191751" lat="14.708976">
                <ele>193.362305</ele>
                <time>2014-04-27T05:18:24Z</time>
            </trkpt>
            <trkpt lon="101.191356" lat="14.709606">
                <ele>193.362305</ele>
                <time>2014-04-27T05:18:45Z</time>
            </trkpt>
            <trkpt lon="101.190904" lat="14.710076">
                <ele>189.036377</ele>
                <time>2014-04-27T05:19:04Z</time>
            </trkpt>
            <trkpt lon="101.190843" lat="14.710056">
                <ele>189.516968</ele>
                <time>2014-04-27T05:19:07Z</time>
            </trkpt>
            <trkpt lon="101.190753" lat="14.709950">
                <ele>189.997681</ele>
                <time>2014-04-27T05:19:13Z</time>
            </trkpt>
            <trkpt lon="101.190758" lat="14.709926">
                <ele>190.958984</ele>
                <time>2014-04-27T05:19:15Z</time>
            </trkpt>
            <trkpt lon="101.191060" lat="14.709487">
                <ele>190.478394</ele>
                <time>2014-04-27T05:19:34Z</time>
            </trkpt>
            <trkpt lon="101.191203" lat="14.709345">
                <ele>189.997681</ele>
                <time>2014-04-27T05:19:41Z</time>
            </trkpt>
            <trkpt lon="101.191237" lat="14.709128">
                <ele>184.710571</ele>
                <time>2014-04-27T05:19:53Z</time>
            </trkpt>
            <trkpt lon="101.191259" lat="14.709107">
                <ele>178.942627</ele>
                <time>2014-04-27T05:20:12Z</time>
            </trkpt>
            <trkpt lon="101.191412" lat="14.709076">
                <ele>191.920288</ele>
                <time>2014-04-27T05:22:04Z</time>
            </trkpt>
            <trkpt lon="101.191353" lat="14.709062">
                <ele>175.577881</ele>
                <time>2014-04-27T05:22:50Z</time>
            </trkpt>
            <trkpt lon="101.191302" lat="14.708972">
                <ele>174.616577</ele>
                <time>2014-04-27T05:22:57Z</time>
            </trkpt>
            <trkpt lon="101.191346" lat="14.707147">
                <ele>177.020019</ele>
                <time>2014-04-27T05:23:58Z</time>
            </trkpt>
            <trkpt lon="101.191310" lat="14.707020">
                <ele>179.903809</ele>
                <time>2014-04-27T05:24:13Z</time>
            </trkpt>
            <trkpt lon="101.191213" lat="14.706884">
                <ele>181.345825</ele>
                <time>2014-04-27T05:24:26Z</time>
            </trkpt>
            <trkpt lon="101.191189" lat="14.706903">
                <ele>182.307129</ele>
                <time>2014-04-27T05:24:29Z</time>
            </trkpt>
            <trkpt lon="101.191160" lat="14.706884">
                <ele>179.423218</ele>
                <time>2014-04-27T05:24:39Z</time>
            </trkpt>
            <trkpt lon="101.191141" lat="14.706889">
                <ele>179.423218</ele>
                <time>2014-04-27T05:24:42Z</time>
            </trkpt>
            <trkpt lon="101.191072" lat="14.706804">
                <ele>179.903809</ele>
                <time>2014-04-27T05:24:47Z</time>
            </trkpt>
            <trkpt lon="101.190856" lat="14.706324">
                <ele>184.229858</ele>
                <time>2014-04-27T05:25:04Z</time>
            </trkpt>
            <trkpt lon="101.190860" lat="14.706307">
                <ele>182.307129</ele>
                <time>2014-04-27T05:25:41Z</time>
            </trkpt>
        </trkseg>
    </trk>
</gpx>